Braila, Romania
Current Conditions -  °F | °C
As of 4:00 AM on Thursday 27 Nov 2014 (Local Time) from LRTC Reporting Station
Overcast Overcast  
Wind Chill: 22°   Ceiling: 1800
Heat Index: 30°   Visibility: 6mi
Dew Point: 25°   Wind: 9mph
Humidity: 80%   Direction: 320°NW
Pressure: 30.3"   Gusts: NA
Location:  45.28°N, 27.97°E
Report Text: LRTC 270100Z AUTO 32008KT 9999 OVC018 M01/M04 Q1026
Loading
Personal Weather Stations






























Interactive Weather Map New forecast layout! Learn more

10-Day Weather Forecast

Advertisements
Track Severe Weather on mobile